sensor_id;sensor_type;location;lat;lon;timestamp;P1;durP1;ratioP1;P2;durP2;ratioP2
20705;SDS011;10514;49.468;11.044;2023-05-07T00:01:40;1.83;;;1.25;;
20705;SDS011;10514;49.468;11.044;2023-05-07T00:04:06;5.60;;;1.83;;
20705;SDS011;10514;49.468;11.044;2023-05-07T00:06:32;2.75;;;1.50;;
20705;SDS011;10514;49.468;11.044;2023-05-07T00:08:58;2.13;;;1.30;;
20705;SDS011;10514;49.468;11.044;2023-05-07T00:11:25;2.17;;;1.63;;
20705;SDS011;10514;49.468;11.044;2023-05-07T00:13:52;5.00;;;1.90;;
20705;SDS011;10514;49.468;11.044;2023-05-07T00:16:17;3.08;;;1.60;;
20705;SDS011;10514;49.468;11.044;2023-05-07T00:18:43;3.35;;;1.38;;
20705;SDS011;10514;49.468;11.044;2023-05-07T00:21:10;1.80;;;1.60;;
20705;SDS011;10514;49.468;11.044;2023-05-07T00:23:36;2.55;;;1.52;;
20705;SDS011;10514;49.468;11.044;2023-05-07T00:26:01;2.85;;;1.70;;
20705;SDS011;10514;49.468;11.044;2023-05-07T00:28:27;2.42;;;1.40;;
20705;SDS011;10514;49.468;11.044;2023-05-07T00:30:53;2.55;;;1.42;;
20705;SDS011;10514;49.468;11.044;2023-05-07T00:33:20;2.78;;;1.75;;
20705;SDS011;10514;49.468;11.044;2023-05-07T00:35:46;1.90;;;1.33;;
20705;SDS011;10514;49.468;11.044;2023-05-07T00:38:12;1.95;;;1.77;;
20705;SDS011;10514;49.468;11.044;2023-05-07T00:40:38;3.25;;;1.30;;
20705;SDS011;10514;49.468;11.044;2023-05-07T00:43:04;2.80;;;1.70;;
20705;SDS011;10514;49.468;11.044;2023-05-07T00:45:30;3.10;;;1.77;;
20705;SDS011;10514;49.468;11.044;2023-05-07T00:47:57;6.07;;;2.00;;
20705;SDS011;10514;49.468;11.044;2023-05-07T00:50:24;2.65;;;1.67;;
20705;SDS011;10514;49.468;11.044;2023-05-07T00:52:51;2.80;;;1.60;;
20705;SDS011;10514;49.468;11.044;2023-05-07T00:55:17;2.55;;;1.60;;
20705;SDS011;10514;49.468;11.044;2023-05-07T00:57:43;3.00;;;1.60;;
20705;SDS011;10514;49.468;11.044;2023-05-07T01:00:10;2.22;;;1.60;;
20705;SDS011;10514;49.468;11.044;2023-05-07T01:02:40;1.80;;;1.60;;
20705;SDS011;10514;49.468;11.044;2023-05-07T01:05:06;2.22;;;1.60;;
20705;SDS011;10514;49.468;11.044;2023-05-07T01:07:34;3.88;;;1.38;;
20705;SDS011;10514;49.468;11.044;2023-05-07T01:10:02;5.18;;;1.63;;
20705;SDS011;10514;49.468;11.044;2023-05-07T01:12:28;2.67;;;1.48;;
20705;SDS011;10514;49.468;11.044;2023-05-07T01:14:55;4.90;;;1.75;;
20705;SDS011;10514;49.468;11.044;2023-05-07T01:17:21;6.80;;;2.20;;
20705;SDS011;10514;49.468;11.044;2023-05-07T01:19:47;3.17;;;1.80;;
20705;SDS011;10514;49.468;11.044;2023-05-07T01:22:13;2.95;;;1.70;;
20705;SDS011;10514;49.468;11.044;2023-05-07T01:24:41;2.53;;;2.05;;
20705;SDS011;10514;49.468;11.044;2023-05-07T01:27:07;6.70;;;2.60;;
20705;SDS011;10514;49.468;11.044;2023-05-07T01:29:33;5.38;;;1.67;;
20705;SDS011;10514;49.468;11.044;2023-05-07T01:31:59;1.63;;;1.40;;
20705;SDS011;10514;49.468;11.044;2023-05-07T01:34:27;1.70;;;1.60;;
20705;SDS011;10514;49.468;11.044;2023-05-07T01:36:54;2.70;;;1.80;;
20705;SDS011;10514;49.468;11.044;2023-05-07T01:39:21;2.20;;;1.65;;
20705;SDS011;10514;49.468;11.044;2023-05-07T01:41:49;3.85;;;2.08;;
20705;SDS011;10514;49.468;11.044;2023-05-07T01:44:15;3.80;;;2.13;;
20705;SDS011;10514;49.468;11.044;2023-05-07T01:46:43;3.28;;;2.22;;
20705;SDS011;10514;49.468;11.044;2023-05-07T01:49:09;3.03;;;2.17;;
20705;SDS011;10514;49.468;11.044;2023-05-07T01:51:35;4.28;;;2.08;;
20705;SDS011;10514;49.468;11.044;2023-05-07T01:54:01;4.72;;;2.22;;
20705;SDS011;10514;49.468;11.044;2023-05-07T01:56:27;3.58;;;2.22;;
20705;SDS011;10514;49.468;11.044;2023-05-07T01:58:53;2.80;;;2.10;;
20705;SDS011;10514;49.468;11.044;2023-05-07T02:01:18;2.53;;;2.10;;
20705;SDS011;10514;49.468;11.044;2023-05-07T02:03:45;6.53;;;2.35;;
20705;SDS011;10514;49.468;11.044;2023-05-07T02:06:10;4.10;;;2.30;;
20705;SDS011;10514;49.468;11.044;2023-05-07T02:08:36;3.10;;;2.38;;
20705;SDS011;10514;49.468;11.044;2023-05-07T02:11:02;4.38;;;2.70;;
20705;SDS011;10514;49.468;11.044;2023-05-07T02:13:29;4.43;;;2.30;;
20705;SDS011;10514;49.468;11.044;2023-05-07T02:15:55;3.40;;;2.42;;
20705;SDS011;10514;49.468;11.044;2023-05-07T02:18:21;6.50;;;2.60;;
20705;SDS011;10514;49.468;11.044;2023-05-07T02:20:47;4.03;;;2.60;;
20705;SDS011;10514;49.468;11.044;2023-05-07T02:23:13;3.25;;;2.45;;
20705;SDS011;10514;49.468;11.044;2023-05-07T02:25:38;4.95;;;2.38;;
20705;SDS011;10514;49.468;11.044;2023-05-07T02:28:04;4.25;;;2.28;;
20705;SDS011;10514;49.468;11.044;2023-05-07T02:30:30;4.43;;;2.40;;
20705;SDS011;10514;49.468;11.044;2023-05-07T02:32:56;4.13;;;2.55;;
20705;SDS011;10514;49.468;11.044;2023-05-07T02:35:23;3.42;;;2.80;;
20705;SDS011;10514;49.468;11.044;2023-05-07T02:37:49;3.47;;;2.67;;
20705;SDS011;10514;49.468;11.044;2023-05-07T02:40:15;4.30;;;2.65;;
20705;SDS011;10514;49.468;11.044;2023-05-07T02:42:41;3.70;;;2.60;;
20705;SDS011;10514;49.468;11.044;2023-05-07T02:45:07;2.95;;;2.28;;
20705;SDS011;10514;49.468;11.044;2023-05-07T02:47:33;3.20;;;2.78;;
20705;SDS011;10514;49.468;11.044;2023-05-07T02:49:59;4.00;;;2.60;;
20705;SDS011;10514;49.468;11.044;2023-05-07T02:52:24;4.15;;;2.60;;
20705;SDS011;10514;49.468;11.044;2023-05-07T02:54:50;4.40;;;2.95;;
20705;SDS011;10514;49.468;11.044;2023-05-07T02:57:16;3.83;;;2.58;;
20705;SDS011;10514;49.468;11.044;2023-05-07T02:59:42;3.67;;;3.22;;
20705;SDS011;10514;49.468;11.044;2023-05-07T03:02:08;3.47;;;3.17;;
20705;SDS011;10514;49.468;11.044;2023-05-07T03:04:35;5.25;;;3.22;;
20705;SDS011;10514;49.468;11.044;2023-05-07T03:07:00;5.45;;;3.05;;
20705;SDS011;10514;49.468;11.044;2023-05-07T03:09:26;4.07;;;3.28;;
20705;SDS011;10514;49.468;11.044;2023-05-07T03:11:52;4.65;;;3.55;;
20705;SDS011;10514;49.468;11.044;2023-05-07T03:14:18;4.70;;;3.70;;
20705;SDS011;10514;49.468;11.044;2023-05-07T03:16:45;5.88;;;3.60;;
20705;SDS011;10514;49.468;11.044;2023-05-07T03:19:11;6.45;;;4.30;;
20705;SDS011;10514;49.468;11.044;2023-05-07T03:21:37;6.57;;;4.18;;
20705;SDS011;10514;49.468;11.044;2023-05-07T03:24:03;5.93;;;4.30;;
20705;SDS011;10514;49.468;11.044;2023-05-07T03:26:29;4.20;;;3.72;;
20705;SDS011;10514;49.468;11.044;2023-05-07T03:28:55;5.70;;;4.10;;
20705;SDS011;10514;49.468;11.044;2023-05-07T03:31:21;7.75;;;5.05;;
20705;SDS011;10514;49.468;11.044;2023-05-07T03:33:53;6.05;;;4.53;;
20705;SDS011;10514;49.468;11.044;2023-05-07T03:36:19;8.48;;;4.28;;
20705;SDS011;10514;49.468;11.044;2023-05-07T03:38:46;6.88;;;4.75;;
20705;SDS011;10514;49.468;11.044;2023-05-07T03:41:12;6.55;;;4.15;;
20705;SDS011;10514;49.468;11.044;2023-05-07T03:43:37;6.45;;;4.90;;
20705;SDS011;10514;49.468;11.044;2023-05-07T03:46:03;5.53;;;4.25;;
20705;SDS011;10514;49.468;11.044;2023-05-07T03:48:29;5.97;;;4.80;;
20705;SDS011;10514;49.468;11.044;2023-05-07T03:50:56;9.35;;;7.70;;
20705;SDS011;10514;49.468;11.044;2023-05-07T03:53:22;4.93;;;4.43;;
20705;SDS011;10514;49.468;11.044;2023-05-07T03:55:48;8.45;;;4.18;;
20705;SDS011;10514;49.468;11.044;2023-05-07T03:58:14;6.82;;;5.03;;
20705;SDS011;10514;49.468;11.044;2023-05-07T04:00:40;5.28;;;4.60;;
20705;SDS011;10514;49.468;11.044;2023-05-07T04:03:06;6.53;;;4.00;;
20705;SDS011;10514;49.468;11.044;2023-05-07T04:05:32;5.63;;;4.85;;
20705;SDS011;10514;49.468;11.044;2023-05-07T04:07:58;6.05;;;4.60;;
20705;SDS011;10514;49.468;11.044;2023-05-07T04:10:25;7.85;;;4.70;;
20705;SDS011;10514;49.468;11.044;2023-05-07T04:12:51;6.70;;;4.53;;
20705;SDS011;10514;49.468;11.044;2023-05-07T04:15:17;6.85;;;5.28;;
20705;SDS011;10514;49.468;11.044;2023-05-07T04:17:43;6.28;;;4.93;;
20705;SDS011;10514;49.468;11.044;2023-05-07T04:20:09;6.00;;;4.78;;
20705;SDS011;10514;49.468;11.044;2023-05-07T04:22:36;6.32;;;4.55;;
20705;SDS011;10514;49.468;11.044;2023-05-07T04:25:02;6.55;;;5.57;;
20705;SDS011;10514;49.468;11.044;2023-05-07T04:27:28;5.68;;;5.07;;
20705;SDS011;10514;49.468;11.044;2023-05-07T04:29:54;5.53;;;4.50;;
20705;SDS011;10514;49.468;11.044;2023-05-07T04:32:20;4.93;;;4.05;;
20705;SDS011;10514;49.468;11.044;2023-05-07T04:34:47;6.22;;;4.80;;
20705;SDS011;10514;49.468;11.044;2023-05-07T04:37:12;10.38;;;5.22;;
20705;SDS011;10514;49.468;11.044;2023-05-07T04:39:38;9.68;;;5.25;;
20705;SDS011;10514;49.468;11.044;2023-05-07T04:42:04;8.57;;;6.07;;
20705;SDS011;10514;49.468;11.044;2023-05-07T04:44:33;8.35;;;5.82;;
20705;SDS011;10514;49.468;11.044;2023-05-07T04:46:59;8.18;;;5.57;;
20705;SDS011;10514;49.468;11.044;2023-05-07T04:49:25;6.57;;;4.80;;
20705;SDS011;10514;49.468;11.044;2023-05-07T04:51:51;8.43;;;5.78;;
20705;SDS011;10514;49.468;11.044;2023-05-07T04:54:16;7.07;;;5.30;;
20705;SDS011;10514;49.468;11.044;2023-05-07T04:56:42;10.50;;;5.97;;
20705;SDS011;10514;49.468;11.044;2023-05-07T04:59:08;7.45;;;5.78;;
20705;SDS011;10514;49.468;11.044;2023-05-07T05:01:34;5.95;;;5.13;;
20705;SDS011;10514;49.468;11.044;2023-05-07T05:04:00;6.65;;;5.45;;
20705;SDS011;10514;49.468;11.044;2023-05-07T05:06:26;6.78;;;5.53;;
20705;SDS011;10514;49.468;11.044;2023-05-07T05:08:51;7.30;;;5.57;;
20705;SDS011;10514;49.468;11.044;2023-05-07T05:11:17;9.38;;;6.28;;
20705;SDS011;10514;49.468;11.044;2023-05-07T05:13:43;8.02;;;6.05;;
20705;SDS011;10514;49.468;11.044;2023-05-07T05:16:09;9.30;;;5.72;;
20705;SDS011;10514;49.468;11.044;2023-05-07T05:18:34;7.43;;;5.05;;
20705;SDS011;10514;49.468;11.044;2023-05-07T05:21:00;8.60;;;5.72;;
20705;SDS011;10514;49.468;11.044;2023-05-07T05:23:26;8.30;;;5.78;;
20705;SDS011;10514;49.468;11.044;2023-05-07T05:25:56;8.20;;;6.20;;
20705;SDS011;10514;49.468;11.044;2023-05-07T05:28:25;7.00;;;5.15;;
20705;SDS011;10514;49.468;11.044;2023-05-07T05:30:52;9.00;;;5.85;;
20705;SDS011;10514;49.468;11.044;2023-05-07T05:33:18;8.68;;;5.40;;
20705;SDS011;10514;49.468;11.044;2023-05-07T05:35:43;8.45;;;6.40;;
20705;SDS011;10514;49.468;11.044;2023-05-07T05:38:09;9.70;;;6.32;;
20705;SDS011;10514;49.468;11.044;2023-05-07T05:40:35;7.35;;;5.13;;
20705;SDS011;10514;49.468;11.044;2023-05-07T05:43:01;8.15;;;6.38;;
20705;SDS011;10514;49.468;11.044;2023-05-07T05:45:27;8.63;;;6.25;;
20705;SDS011;10514;49.468;11.044;2023-05-07T05:47:53;8.38;;;6.25;;
20705;SDS011;10514;49.468;11.044;2023-05-07T05:50:21;9.90;;;6.28;;
20705;SDS011;10514;49.468;11.044;2023-05-07T05:52:47;8.85;;;6.00;;
20705;SDS011;10514;49.468;11.044;2023-05-07T05:55:13;11.00;;;6.10;;
20705;SDS011;10514;49.468;11.044;2023-05-07T05:57:39;8.45;;;6.05;;
20705;SDS011;10514;49.468;11.044;2023-05-07T06:00:06;10.88;;;6.57;;
20705;SDS011;10514;49.468;11.044;2023-05-07T06:02:32;8.90;;;6.10;;
20705;SDS011;10514;49.468;11.044;2023-05-07T06:04:58;8.82;;;5.43;;
20705;SDS011;10514;49.468;11.044;2023-05-07T06:07:24;7.07;;;5.63;;
20705;SDS011;10514;49.468;11.044;2023-05-07T06:09:50;13.68;;;6.32;;
20705;SDS011;10514;49.468;11.044;2023-05-07T06:12:16;7.03;;;6.15;;
20705;SDS011;10514;49.468;11.044;2023-05-07T06:14:43;11.82;;;5.97;;
20705;SDS011;10514;49.468;11.044;2023-05-07T06:17:09;7.78;;;6.32;;
20705;SDS011;10514;49.468;11.044;2023-05-07T06:19:34;7.88;;;5.43;;
20705;SDS011;10514;49.468;11.044;2023-05-07T06:22:01;9.82;;;6.22;;
20705;SDS011;10514;49.468;11.044;2023-05-07T06:24:27;10.05;;;5.50;;
20705;SDS011;10514;49.468;11.044;2023-05-07T06:26:53;7.78;;;5.50;;
20705;SDS011;10514;49.468;11.044;2023-05-07T06:29:19;10.15;;;5.47;;
20705;SDS011;10514;49.468;11.044;2023-05-07T06:31:45;7.38;;;5.45;;
20705;SDS011;10514;49.468;11.044;2023-05-07T06:34:11;9.00;;;5.93;;
20705;SDS011;10514;49.468;11.044;2023-05-07T06:36:39;8.18;;;5.78;;
20705;SDS011;10514;49.468;11.044;2023-05-07T06:39:06;6.78;;;5.65;;
20705;SDS011;10514;49.468;11.044;2023-05-07T06:41:31;6.63;;;5.95;;
20705;SDS011;10514;49.468;11.044;2023-05-07T06:43:58;9.25;;;5.70;;
20705;SDS011;10514;49.468;11.044;2023-05-07T06:46:23;9.07;;;6.07;;
20705;SDS011;10514;49.468;11.044;2023-05-07T06:48:49;8.20;;;5.80;;
20705;SDS011;10514;49.468;11.044;2023-05-07T06:51:15;9.93;;;6.38;;
20705;SDS011;10514;49.468;11.044;2023-05-07T06:53:40;10.20;;;6.28;;
20705;SDS011;10514;49.468;11.044;2023-05-07T06:56:06;6.72;;;5.70;;
20705;SDS011;10514;49.468;11.044;2023-05-07T06:58:32;8.05;;;6.05;;
20705;SDS011;10514;49.468;11.044;2023-05-07T07:00:59;6.45;;;5.47;;
20705;SDS011;10514;49.468;11.044;2023-05-07T07:03:25;9.23;;;6.00;;
20705;SDS011;10514;49.468;11.044;2023-05-07T07:05:51;10.35;;;5.28;;
20705;SDS011;10514;49.468;11.044;2023-05-07T07:08:17;6.93;;;5.13;;
20705;SDS011;10514;49.468;11.044;2023-05-07T07:10:46;8.18;;;5.43;;
20705;SDS011;10514;49.468;11.044;2023-05-07T07:13:11;9.45;;;5.72;;
20705;SDS011;10514;49.468;11.044;2023-05-07T07:15:37;6.90;;;5.18;;
20705;SDS011;10514;49.468;11.044;2023-05-07T07:18:03;9.07;;;6.00;;
20705;SDS011;10514;49.468;11.044;2023-05-07T07:20:29;8.63;;;5.35;;
20705;SDS011;10514;49.468;11.044;2023-05-07T07:22:55;7.25;;;5.38;;
20705;SDS011;10514;49.468;11.044;2023-05-07T07:25:21;8.45;;;5.60;;
20705;SDS011;10514;49.468;11.044;2023-05-07T07:27:48;5.93;;;4.85;;
20705;SDS011;10514;49.468;11.044;2023-05-07T07:30:14;7.95;;;5.00;;
20705;SDS011;10514;49.468;11.044;2023-05-07T07:32:39;7.05;;;4.82;;
20705;SDS011;10514;49.468;11.044;2023-05-07T07:35:06;6.25;;;4.57;;
20705;SDS011;10514;49.468;11.044;2023-05-07T07:37:32;8.27;;;5.55;;
20705;SDS011;10514;49.468;11.044;2023-05-07T07:39:57;7.15;;;5.05;;
20705;SDS011;10514;49.468;11.044;2023-05-07T07:42:23;7.75;;;4.60;;
20705;SDS011;10514;49.468;11.044;2023-05-07T07:44:49;7.38;;;5.00;;
20705;SDS011;10514;49.468;11.044;2023-05-07T07:47:15;5.57;;;4.75;;
20705;SDS011;10514;49.468;11.044;2023-05-07T07:49:41;5.38;;;4.65;;
20705;SDS011;10514;49.468;11.044;2023-05-07T07:52:07;5.20;;;4.57;;
20705;SDS011;10514;49.468;11.044;2023-05-07T07:54:33;5.95;;;5.07;;
20705;SDS011;10514;49.468;11.044;2023-05-07T07:56:59;5.57;;;4.50;;
20705;SDS011;10514;49.468;11.044;2023-05-07T07:59:26;6.90;;;4.60;;
20705;SDS011;10514;49.468;11.044;2023-05-07T08:01:52;7.20;;;4.70;;
20705;SDS011;10514;49.468;11.044;2023-05-07T08:04:20;6.97;;;6.00;;
20705;SDS011;10514;49.468;11.044;2023-05-07T08:06:46;9.13;;;4.75;;
20705;SDS011;10514;49.468;11.044;2023-05-07T08:09:12;7.93;;;4.47;;
20705;SDS011;10514;49.468;11.044;2023-05-07T08:11:38;7.55;;;4.93;;
20705;SDS011;10514;49.468;11.044;2023-05-07T08:14:04;6.13;;;4.60;;
20705;SDS011;10514;49.468;11.044;2023-05-07T08:16:30;8.27;;;4.57;;
20705;SDS011;10514;49.468;11.044;2023-05-07T08:18:56;5.57;;;4.63;;
20705;SDS011;10514;49.468;11.044;2023-05-07T08:21:22;9.05;;;5.35;;
20705;SDS011;10514;49.468;11.044;2023-05-07T08:23:47;11.30;;;4.97;;
20705;SDS011;10514;49.468;11.044;2023-05-07T08:26:13;9.35;;;4.40;;
20705;SDS011;10514;49.468;11.044;2023-05-07T08:28:38;6.78;;;4.80;;
20705;SDS011;10514;49.468;11.044;2023-05-07T08:31:04;5.45;;;4.63;;
20705;SDS011;10514;49.468;11.044;2023-05-07T08:33:30;5.05;;;4.20;;
20705;SDS011;10514;49.468;11.044;2023-05-07T08:35:56;5.57;;;4.30;;
20705;SDS011;10514;49.468;11.044;2023-05-07T08:38:23;5.22;;;4.43;;
20705;SDS011;10514;49.468;11.044;2023-05-07T08:40:49;6.85;;;4.78;;
20705;SDS011;10514;49.468;11.044;2023-05-07T08:43:15;6.43;;;4.28;;
20705;SDS011;10514;49.468;11.044;2023-05-07T08:45:41;9.25;;;5.03;;
20705;SDS011;10514;49.468;11.044;2023-05-07T08:48:14;5.22;;;4.15;;
20705;SDS011;10514;49.468;11.044;2023-05-07T08:50:40;5.30;;;4.20;;
20705;SDS011;10514;49.468;11.044;2023-05-07T08:53:06;5.63;;;4.25;;
20705;SDS011;10514;49.468;11.044;2023-05-07T08:55:32;5.00;;;4.47;;
20705;SDS011;10514;49.468;11.044;2023-05-07T08:57:59;7.25;;;4.57;;
20705;SDS011;10514;49.468;11.044;2023-05-07T09:00:24;8.23;;;4.63;;
20705;SDS011;10514;49.468;11.044;2023-05-07T09:02:51;4.95;;;4.45;;
20705;SDS011;10514;49.468;11.044;2023-05-07T09:05:20;8.20;;;4.15;;
20705;SDS011;10514;49.468;11.044;2023-05-07T09:07:46;5.25;;;4.20;;
20705;SDS011;10514;49.468;11.044;2023-05-07T09:10:12;5.45;;;3.80;;
20705;SDS011;10514;49.468;11.044;2023-05-07T09:12:39;4.07;;;3.55;;
20705;SDS011;10514;49.468;11.044;2023-05-07T09:15:05;6.05;;;4.47;;
20705;SDS011;10514;49.468;11.044;2023-05-07T09:17:32;5.32;;;4.28;;
20705;SDS011;10514;49.468;11.044;2023-05-07T09:20:04;4.90;;;4.40;;
20705;SDS011;10514;49.468;11.044;2023-05-07T09:22:34;4.32;;;3.92;;
20705;SDS011;10514;49.468;11.044;2023-05-07T09:25:01;6.53;;;4.65;;
20705;SDS011;10514;49.468;11.044;2023-05-07T09:27:27;6.13;;;4.90;;
20705;SDS011;10514;49.468;11.044;2023-05-07T09:29:53;5.22;;;4.28;;
20705;SDS011;10514;49.468;11.044;2023-05-07T09:32:19;5.78;;;4.38;;
20705;SDS011;10514;49.468;11.044;2023-05-07T09:34:45;4.50;;;4.10;;
20705;SDS011;10514;49.468;11.044;2023-05-07T09:37:12;4.40;;;3.80;;
20705;SDS011;10514;49.468;11.044;2023-05-07T09:39:39;4.60;;;3.63;;
20705;SDS011;10514;49.468;11.044;2023-05-07T09:42:08;4.82;;;4.15;;
20705;SDS011;10514;49.468;11.044;2023-05-07T09:44:34;4.70;;;4.25;;
20705;SDS011;10514;49.468;11.044;2023-05-07T09:47:00;4.43;;;4.03;;
20705;SDS011;10514;49.468;11.044;2023-05-07T09:49:29;7.35;;;4.32;;
20705;SDS011;10514;49.468;11.044;2023-05-07T09:51:58;4.75;;;3.72;;
20705;SDS011;10514;49.468;11.044;2023-05-07T09:54:26;4.40;;;3.92;;
20705;SDS011;10514;49.468;11.044;2023-05-07T09:56:54;5.80;;;3.72;;
20705;SDS011;10514;49.468;11.044;2023-05-07T09:59:20;8.05;;;3.58;;
20705;SDS011;10514;49.468;11.044;2023-05-07T10:01:47;4.90;;;3.90;;
20705;SDS011;10514;49.468;11.044;2023-05-07T10:04:14;5.53;;;3.90;;
20705;SDS011;10514;49.468;11.044;2023-05-07T10:06:39;6.10;;;3.58;;
20705;SDS011;10514;49.468;11.044;2023-05-07T10:09:05;4.70;;;3.85;;
20705;SDS011;10514;49.468;11.044;2023-05-07T10:11:34;4.60;;;3.20;;
20705;SDS011;10514;49.468;11.044;2023-05-07T10:14:01;4.25;;;3.55;;
20705;SDS011;10514;49.468;11.044;2023-05-07T10:16:29;5.85;;;3.50;;
20705;SDS011;10514;49.468;11.044;2023-05-07T10:18:58;7.07;;;4.00;;
20705;SDS011;10514;49.468;11.044;2023-05-07T10:21:24;3.88;;;3.13;;
20705;SDS011;10514;49.468;11.044;2023-05-07T10:23:59;4.95;;;4.07;;
20705;SDS011;10514;49.468;11.044;2023-05-07T10:26:35;5.57;;;3.72;;
20705;SDS011;10514;49.468;11.044;2023-05-07T10:29:12;6.30;;;3.15;;
20705;SDS011;10514;49.468;11.044;2023-05-07T10:31:50;7.05;;;3.90;;
20705;SDS011;10514;49.468;11.044;2023-05-07T10:34:37;4.35;;;3.65;;
20705;SDS011;10514;49.468;11.044;2023-05-07T10:37:06;6.82;;;3.75;;
20705;SDS011;10514;49.468;11.044;2023-05-07T10:39:33;3.92;;;3.60;;
20705;SDS011;10514;49.468;11.044;2023-05-07T10:42:12;3.83;;;3.42;;
20705;SDS011;10514;49.468;11.044;2023-05-07T10:44:39;8.75;;;3.70;;
20705;SDS011;10514;49.468;11.044;2023-05-07T10:47:06;7.13;;;3.60;;
20705;SDS011;10514;49.468;11.044;2023-05-07T10:49:36;4.07;;;3.63;;
20705;SDS011;10514;49.468;11.044;2023-05-07T10:52:18;3.90;;;3.17;;
20705;SDS011;10514;49.468;11.044;2023-05-07T10:54:48;5.22;;;3.67;;
20705;SDS011;10514;49.468;11.044;2023-05-07T10:57:42;3.17;;;2.85;;
20705;SDS011;10514;49.468;11.044;2023-05-07T11:03:07;3.75;;;3.10;;
20705;SDS011;10514;49.468;11.044;2023-05-07T11:05:33;5.50;;;3.42;;
20705;SDS011;10514;49.468;11.044;2023-05-07T11:08:00;3.38;;;2.83;;
20705;SDS011;10514;49.468;11.044;2023-05-07T11:10:47;3.28;;;2.70;;
20705;SDS011;10514;49.468;11.044;2023-05-07T11:18:53;6.45;;;3.17;;
20705;SDS011;10514;49.468;11.044;2023-05-07T11:21:35;4.30;;;3.33;;
20705;SDS011;10514;49.468;11.044;2023-05-07T11:24:02;4.40;;;2.75;;
20705;SDS011;10514;49.468;11.044;2023-05-07T11:26:30;5.07;;;3.08;;
20705;SDS011;10514;49.468;11.044;2023-05-07T11:29:09;4.93;;;3.00;;
20705;SDS011;10514;49.468;11.044;2023-05-07T11:31:35;5.45;;;3.22;;
20705;SDS011;10514;49.468;11.044;2023-05-07T11:34:02;5.13;;;3.80;;
20705;SDS011;10514;49.468;11.044;2023-05-07T11:36:30;3.38;;;3.03;;
20705;SDS011;10514;49.468;11.044;2023-05-07T11:38:56;5.28;;;2.97;;
20705;SDS011;10514;49.468;11.044;2023-05-07T11:41:22;3.42;;;2.97;;
20705;SDS011;10514;49.468;11.044;2023-05-07T11:43:59;3.42;;;3.13;;
20705;SDS011;10514;49.468;11.044;2023-05-07T11:46:26;4.45;;;3.00;;
20705;SDS011;10514;49.468;11.044;2023-05-07T11:48:52;8.32;;;3.25;;
20705;SDS011;10514;49.468;11.044;2023-05-07T11:51:18;5.15;;;2.90;;
20705;SDS011;10514;49.468;11.044;2023-05-07T11:53:45;2.83;;;2.15;;
20705;SDS011;10514;49.468;11.044;2023-05-07T11:56:13;3.42;;;2.35;;
20705;SDS011;10514;49.468;11.044;2023-05-07T11:58:41;3.63;;;2.22;;
20705;SDS011;10514;49.468;11.044;2023-05-07T12:01:07;4.88;;;2.35;;
20705;SDS011;10514;49.468;11.044;2023-05-07T12:03:35;2.58;;;2.05;;
20705;SDS011;10514;49.468;11.044;2023-05-07T12:06:02;5.45;;;1.92;;
20705;SDS011;10514;49.468;11.044;2023-05-07T12:08:30;4.07;;;2.80;;
20705;SDS011;10514;49.468;11.044;2023-05-07T12:10:56;2.58;;;2.33;;
20705;SDS011;10514;49.468;11.044;2023-05-07T12:13:24;4.53;;;2.42;;
20705;SDS011;10514;49.468;11.044;2023-05-07T12:15:53;2.40;;;1.90;;
20705;SDS011;10514;49.468;11.044;2023-05-07T12:18:21;2.95;;;2.35;;
20705;SDS011;10514;49.468;11.044;2023-05-07T12:20:48;2.83;;;2.15;;
20705;SDS011;10514;49.468;11.044;2023-05-07T12:23:14;3.28;;;2.97;;
20705;SDS011;10514;49.468;11.044;2023-05-07T12:25:41;3.90;;;2.55;;
20705;SDS011;10514;49.468;11.044;2023-05-07T12:28:14;3.72;;;2.50;;
20705;SDS011;10514;49.468;11.044;2023-05-07T12:30:41;4.60;;;3.22;;
20705;SDS011;10514;49.468;11.044;2023-05-07T12:33:08;3.70;;;2.95;;
20705;SDS011;10514;49.468;11.044;2023-05-07T12:35:38;3.78;;;3.03;;
20705;SDS011;10514;49.468;11.044;2023-05-07T12:38:15;3.95;;;2.85;;
20705;SDS011;10514;49.468;11.044;2023-05-07T12:40:43;4.15;;;2.88;;
20705;SDS011;10514;49.468;11.044;2023-05-07T12:43:26;5.20;;;3.38;;
20705;SDS011;10514;49.468;11.044;2023-05-07T12:45:53;4.38;;;3.35;;
20705;SDS011;10514;49.468;11.044;2023-05-07T12:48:21;5.95;;;3.33;;
20705;SDS011;10514;49.468;11.044;2023-05-07T12:50:50;3.30;;;3.00;;
20705;SDS011;10514;49.468;11.044;2023-05-07T12:53:19;4.50;;;2.78;;
20705;SDS011;10514;49.468;11.044;2023-05-07T12:55:46;4.18;;;2.83;;
20705;SDS011;10514;49.468;11.044;2023-05-07T12:58:26;4.95;;;2.90;;
20705;SDS011;10514;49.468;11.044;2023-05-07T13:00:54;5.07;;;2.60;;
20705;SDS011;10514;49.468;11.044;2023-05-07T13:03:30;3.17;;;2.60;;
20705;SDS011;10514;49.468;11.044;2023-05-07T13:05:58;3.22;;;2.75;;
20705;SDS011;10514;49.468;11.044;2023-05-07T13:08:31;3.33;;;2.72;;
20705;SDS011;10514;49.468;11.044;2023-05-07T13:11:11;3.63;;;2.85;;
20705;SDS011;10514;49.468;11.044;2023-05-07T13:13:38;3.00;;;2.70;;
20705;SDS011;10514;49.468;11.044;2023-05-07T13:16:05;4.20;;;3.15;;
20705;SDS011;10514;49.468;11.044;2023-05-07T13:18:32;4.15;;;2.83;;
20705;SDS011;10514;49.468;11.044;2023-05-07T13:20:58;4.68;;;2.97;;
20705;SDS011;10514;49.468;11.044;2023-05-07T13:23:25;4.28;;;2.88;;
20705;SDS011;10514;49.468;11.044;2023-05-07T13:25:51;5.68;;;2.63;;
20705;SDS011;10514;49.468;11.044;2023-05-07T13:28:21;4.57;;;2.58;;
20705;SDS011;10514;49.468;11.044;2023-05-07T13:30:47;3.17;;;2.85;;
20705;SDS011;10514;49.468;11.044;2023-05-07T13:33:13;3.67;;;2.53;;
20705;SDS011;10514;49.468;11.044;2023-05-07T13:35:38;3.20;;;2.42;;
20705;SDS011;10514;49.468;11.044;2023-05-07T13:38:04;6.75;;;2.75;;
20705;SDS011;10514;49.468;11.044;2023-05-07T13:40:30;3.47;;;2.15;;
20705;SDS011;10514;49.468;11.044;2023-05-07T13:42:59;5.43;;;2.60;;
20705;SDS011;10514;49.468;11.044;2023-05-07T13:45:27;3.05;;;2.75;;
20705;SDS011;10514;49.468;11.044;2023-05-07T13:47:54;4.50;;;2.67;;
20705;SDS011;10514;49.468;11.044;2023-05-07T13:50:20;3.03;;;2.72;;
20705;SDS011;10514;49.468;11.044;2023-05-07T13:52:46;2.90;;;2.30;;
20705;SDS011;10514;49.468;11.044;2023-05-07T13:55:18;3.38;;;2.63;;
20705;SDS011;10514;49.468;11.044;2023-05-07T13:57:45;5.68;;;2.25;;
20705;SDS011;10514;49.468;11.044;2023-05-07T14:00:11;4.78;;;2.60;;
20705;SDS011;10514;49.468;11.044;2023-05-07T14:02:38;3.13;;;2.28;;
20705;SDS011;10514;49.468;11.044;2023-05-07T14:05:03;6.38;;;2.55;;
20705;SDS011;10514;49.468;11.044;2023-05-07T14:07:29;3.53;;;2.53;;
20705;SDS011;10514;49.468;11.044;2023-05-07T14:09:56;3.15;;;2.65;;
20705;SDS011;10514;49.468;11.044;2023-05-07T14:12:21;3.88;;;2.40;;
20705;SDS011;10514;49.468;11.044;2023-05-07T14:14:47;5.97;;;2.70;;
20705;SDS011;10514;49.468;11.044;2023-05-07T14:17:14;3.78;;;2.97;;
20705;SDS011;10514;49.468;11.044;2023-05-07T14:19:40;4.40;;;2.60;;
20705;SDS011;10514;49.468;11.044;2023-05-07T14:22:06;3.75;;;2.58;;
20705;SDS011;10514;49.468;11.044;2023-05-07T14:24:32;2.85;;;2.53;;
20705;SDS011;10514;49.468;11.044;2023-05-07T14:26:57;5.30;;;3.05;;
20705;SDS011;10514;49.468;11.044;2023-05-07T14:29:23;2.90;;;2.15;;
20705;SDS011;10514;49.468;11.044;2023-05-07T14:31:49;3.35;;;2.15;;
20705;SDS011;10514;49.468;11.044;2023-05-07T14:34:15;4.07;;;2.78;;
20705;SDS011;10514;49.468;11.044;2023-05-07T14:36:40;3.50;;;2.92;;
20705;SDS011;10514;49.468;11.044;2023-05-07T14:39:06;3.38;;;2.88;;
20705;SDS011;10514;49.468;11.044;2023-05-07T14:41:32;3.22;;;2.35;;